createdAt,value
2019-03-17T00:01:57.672Z,81.30
2019-03-17T00:04:31.436Z,76.10
2019-03-17T00:06:56.674Z,66.60
2019-03-17T00:09:26.701Z,64.50
2019-03-17T00:11:56.192Z,62.20
2019-03-17T00:14:25.054Z,55.90
2019-03-17T00:16:54.786Z,52.50
2019-03-17T00:19:24.037Z,51.00
2019-03-17T00:21:53.034Z,48.20
2019-03-17T00:24:22.309Z,48.50
2019-03-17T00:26:51.484Z,45.90
2019-03-17T00:29:21.084Z,46.50
2019-03-17T00:31:50.694Z,42.20
2019-03-17T00:34:19.609Z,43.10
2019-03-17T00:36:48.489Z,42.70
2019-03-17T00:39:17.481Z,42.40
2019-03-17T00:41:46.766Z,40.40
2019-03-17T00:44:15.735Z,41.70
2019-03-17T00:46:44.654Z,40.10
2019-03-17T00:49:13.846Z,39.20
2019-03-17T00:51:42.778Z,39.00
2019-03-17T00:54:11.618Z,40.30
2019-03-17T00:56:40.548Z,38.30
2019-03-17T00:59:09.818Z,38.30
2019-03-17T01:01:38.763Z,36.80
2019-03-17T01:04:07.754Z,38.20
2019-03-17T01:06:37.037Z,37.90
2019-03-17T01:09:06.633Z,37.30
2019-03-17T01:11:35.960Z,38.60
2019-03-17T01:14:04.981Z,37.10
2019-03-17T01:16:33.915Z,36.80
2019-03-17T01:19:02.833Z,36.00
2019-03-17T01:21:31.757Z,35.40
2019-03-17T01:24:00.687Z,34.30
2019-03-17T01:26:29.933Z,33.80
2019-03-17T01:28:59.131Z,33.00
2019-03-17T01:31:27.974Z,33.50
2019-03-17T01:33:57.271Z,33.90
2019-03-17T01:36:26.182Z,33.40
2019-03-17T01:38:55.489Z,33.20
2019-03-17T01:41:24.437Z,34.10
2019-03-17T01:43:53.361Z,34.20
2019-03-17T01:46:22.538Z,34.00
2019-03-17T01:48:51.409Z,34.50
2019-03-17T01:51:20.257Z,35.30
2019-03-17T01:53:49.521Z,35.50
2019-03-17T01:56:18.430Z,34.70
2019-03-17T01:58:47.362Z,36.10
2019-03-17T02:01:16.706Z,36.30
2019-03-17T02:03:45.924Z,35.90
2019-03-17T02:06:14.772Z,36.50
2019-03-17T02:08:43.686Z,36.00
2019-03-17T02:11:12.522Z,35.40
2019-03-17T02:13:41.673Z,34.80
2019-03-17T02:16:10.621Z,34.70
2019-03-17T02:18:39.489Z,35.20
2019-03-17T02:21:08.406Z,35.90
2019-03-17T02:23:37.419Z,35.60
2019-03-17T02:26:06.319Z,35.40
2019-03-17T02:28:35.177Z,36.40
2019-03-17T02:31:04.097Z,36.10
2019-03-17T02:33:33.243Z,36.30
2019-03-17T02:36:02.246Z,35.20
2019-03-17T02:38:31.252Z,36.50
2019-03-17T02:41:00.104Z,36.00
2019-03-17T02:43:29.031Z,36.30
2019-03-17T02:46:02.621Z,37.60
2019-03-17T02:48:29.240Z,37.70
2019-03-17T02:50:58.173Z,38.30
2019-03-17T02:53:27.021Z,38.60
2019-03-17T02:55:56.013Z,39.20
2019-03-17T02:58:24.899Z,40.00
2019-03-17T03:00:54.056Z,40.80
2019-03-17T03:03:22.913Z,40.30
2019-03-17T03:05:55.398Z,40.20
2019-03-17T03:08:22.411Z,40.50
2019-03-17T03:10:51.258Z,41.80
2019-03-17T03:13:20.414Z,42.00
2019-03-17T03:15:49.396Z,41.50
2019-03-17T03:18:18.643Z,41.70
2019-03-17T03:20:48.007Z,41.90
2019-03-17T03:23:16.883Z,41.80
2019-03-17T03:25:46.140Z,42.50
2019-03-17T03:28:15.472Z,42.40
2019-03-17T03:30:44.743Z,42.50
2019-03-17T03:33:13.673Z,42.70
2019-03-17T03:35:42.608Z,43.20
2019-03-17T03:38:11.539Z,42.80
2019-03-17T03:40:40.750Z,43.30
2019-03-17T03:43:10.046Z,43.60
2019-03-17T03:45:38.993Z,43.40
2019-03-17T03:48:08.246Z,43.50
2019-03-17T03:50:37.279Z,43.70
2019-03-17T03:53:06.342Z,43.50
2019-03-17T03:55:36.033Z,43.40
2019-03-17T03:58:05.089Z,43.70
2019-03-17T04:00:34.043Z,43.90
2019-03-17T04:03:02.897Z,44.20
2019-03-17T04:05:33.824Z,44.80
2019-03-17T04:08:02.671Z,45.40
2019-03-17T04:10:31.630Z,45.60
2019-03-17T04:13:01.009Z,45.90
2019-03-17T04:15:29.986Z,45.60
2019-03-17T04:17:59.343Z,45.80
2019-03-17T04:20:28.236Z,46.10
2019-03-17T04:22:57.209Z,46.60
2019-03-17T04:25:26.138Z,46.70
2019-03-17T04:27:55.065Z,47.00
2019-03-17T04:30:24.101Z,47.20
2019-03-17T04:32:53.832Z,47.60
2019-03-17T04:35:22.781Z,48.00
2019-03-17T04:37:52.070Z,48.20
2019-03-17T04:40:20.925Z,48.60
2019-03-17T04:42:49.856Z,48.90
2019-03-17T04:45:18.806Z,48.80
2019-03-17T04:47:47.668Z,49.10
2019-03-17T04:50:16.538Z,48.90
2019-03-17T04:53:01.879Z,49.30
2019-03-17T04:55:31.171Z,49.20
2019-03-17T04:58:00.075Z,49.20
2019-03-17T05:00:29.002Z,49.40
2019-03-17T05:02:57.938Z,49.30
2019-03-17T05:05:27.096Z,49.00
2019-03-17T05:07:55.958Z,49.00
2019-03-17T05:10:24.811Z,48.80
2019-03-17T05:12:53.946Z,49.00
2019-03-17T05:15:23.153Z,48.50
2019-03-17T05:17:52.553Z,49.00
2019-03-17T05:20:21.409Z,49.00
2019-03-17T05:22:50.259Z,48.50
2019-03-17T05:25:19.221Z,47.80
2019-03-17T05:27:48.462Z,48.20
2019-03-17T05:30:17.322Z,47.40
2019-03-17T05:32:46.257Z,47.80
2019-03-17T05:35:15.106Z,47.10
2019-03-17T05:37:43.965Z,47.60
2019-03-17T05:40:12.957Z,47.90
2019-03-17T05:42:42.239Z,47.80
2019-03-17T05:45:11.149Z,47.60
2019-03-17T05:47:40.005Z,47.20
2019-03-17T05:50:09.082Z,47.30
2019-03-17T05:52:38.277Z,47.50
2019-03-17T05:55:07.561Z,48.00
2019-03-17T05:57:36.497Z,47.20
2019-03-17T06:00:06.427Z,47.50
2019-03-17T06:02:35.379Z,47.20
2019-03-17T06:05:04.759Z,46.70
2019-03-17T06:07:33.614Z,46.60
2019-03-17T06:10:02.852Z,46.60
2019-03-17T06:12:31.792Z,46.60
2019-03-17T06:15:00.645Z,46.80
2019-03-17T06:17:29.933Z,47.10
2019-03-17T06:19:58.766Z,47.30
2019-03-17T06:22:27.627Z,47.40
2019-03-17T06:24:56.462Z,47.30
2019-03-17T06:27:25.365Z,47.30
2019-03-17T06:29:54.223Z,47.90
2019-03-17T06:32:23.386Z,48.30
2019-03-17T06:34:52.255Z,48.80
2019-03-17T06:37:30.568Z,48.60
2019-03-17T06:39:52.391Z,47.40
2019-03-17T06:42:21.622Z,48.80
2019-03-17T06:44:50.743Z,48.90
2019-03-17T06:47:20.006Z,48.30
2019-03-17T06:49:49.221Z,47.60
2019-03-17T06:52:18.137Z,48.00
2019-03-17T06:54:47.057Z,47.60
2019-03-17T06:57:15.910Z,47.50
2019-03-17T06:59:45.077Z,46.70
2019-03-17T07:02:14.014Z,46.70
2019-03-17T07:04:43.220Z,46.20
2019-03-17T07:07:12.364Z,46.20
2019-03-17T07:09:41.205Z,46.00
2019-03-17T07:12:10.375Z,46.50
2019-03-17T07:14:39.225Z,47.60
2019-03-17T07:17:11.225Z,46.90
2019-03-17T07:22:56.227Z,47.90
2019-03-17T07:25:25.399Z,48.10
2019-03-17T07:27:54.595Z,48.80
2019-03-17T07:30:23.442Z,49.10
2019-03-17T07:32:52.373Z,49.20
2019-03-17T07:35:21.291Z,49.00
2019-03-17T07:37:56.671Z,49.10
2019-03-17T07:40:22.118Z,49.80
2019-03-17T07:42:50.984Z,49.90
2019-03-17T07:45:19.904Z,50.20
2019-03-17T07:47:49.098Z,49.50
2019-03-17T07:50:18.044Z,50.00
2019-03-17T07:52:47.219Z,50.40
2019-03-17T07:55:16.063Z,50.90
2019-03-17T07:57:48.089Z,51.60
2019-03-17T08:00:17.383Z,51.50
2019-03-17T08:02:46.317Z,51.80
2019-03-17T08:05:15.237Z,52.00
2019-03-17T08:07:44.169Z,52.00
2019-03-17T08:10:13.534Z,53.10
2019-03-17T08:12:42.449Z,53.30
2019-03-17T08:15:11.714Z,52.70
2019-03-17T08:17:40.725Z,53.40
2019-03-17T08:20:10.153Z,52.60
2019-03-17T08:22:39.307Z,52.40
2019-03-17T08:25:09.115Z,51.30
2019-03-17T08:27:38.053Z,49.30
2019-03-17T08:30:08.368Z,48.60
2019-03-17T08:32:37.746Z,47.10
2019-03-17T08:35:07.103Z,46.90
2019-03-17T08:37:39.222Z,44.80
2019-03-17T08:40:10.420Z,45.90
2019-03-17T08:42:39.622Z,45.70
2019-03-17T08:45:10.045Z,43.70
2019-03-17T08:47:39.032Z,44.40
2019-03-17T08:50:12.012Z,43.80
2019-03-17T08:52:41.047Z,42.90
2019-03-17T08:55:10.007Z,42.30
2019-03-17T08:57:38.980Z,41.60
2019-03-17T09:00:09.722Z,40.00
2019-03-17T09:02:38.697Z,41.60
2019-03-17T09:05:07.807Z,39.60
2019-03-17T09:07:37.084Z,41.40
2019-03-17T09:10:07.116Z,41.30
2019-03-17T09:12:36.067Z,40.90
2019-03-17T09:15:05.474Z,38.60
2019-03-17T09:17:34.679Z,39.30
2019-03-17T09:20:04.243Z,40.40
2019-03-17T09:22:33.126Z,38.30
2019-03-17T09:25:02.709Z,38.60
2019-03-17T09:27:31.746Z,38.10
2019-03-17T09:30:01.396Z,36.10
2019-03-17T09:32:36.438Z,37.10
2019-03-17T09:35:06.400Z,39.10
2019-03-17T09:37:35.634Z,38.50
2019-03-17T09:40:05.546Z,36.80
2019-03-17T09:42:34.526Z,37.40
2019-03-17T09:45:03.994Z,36.20
2019-03-17T09:47:32.994Z,36.50
2019-03-17T09:50:02.268Z,36.00
2019-03-17T09:52:31.539Z,38.20
2019-03-17T09:55:00.746Z,37.20
2019-03-17T09:57:29.670Z,38.50
2019-03-17T09:59:58.881Z,35.00
2019-03-17T10:02:27.815Z,36.40
2019-03-17T10:04:56.677Z,36.00
2019-03-17T10:07:25.913Z,38.00
2019-03-17T10:09:55.057Z,36.40
2019-03-17T10:12:24.377Z,36.90
2019-03-17T10:14:53.602Z,36.10
2019-03-17T10:17:22.447Z,37.20
2019-03-17T10:19:51.590Z,36.10
2019-03-17T10:25:09.629Z,34.80
2019-03-17T10:27:39.004Z,35.30
2019-03-17T10:30:09.366Z,35.70
2019-03-17T10:32:38.208Z,38.00
2019-03-17T10:35:07.271Z,38.00
2019-03-17T10:37:36.464Z,35.40
2019-03-17T10:40:06.913Z,36.70
2019-03-17T10:42:36.148Z,35.10
2019-03-17T10:45:06.016Z,34.80
2019-03-17T10:47:34.857Z,34.30
2019-03-17T10:50:22.918Z,34.10
2019-03-17T10:52:52.030Z,34.70
2019-03-17T10:55:20.905Z,35.90
2019-03-17T10:57:49.836Z,35.50
2019-03-17T11:00:18.977Z,36.30
2019-03-17T11:02:47.909Z,37.50
2019-03-17T11:05:17.277Z,36.40
2019-03-17T11:07:46.214Z,37.70
2019-03-17T11:10:15.593Z,37.30
2019-03-17T11:12:44.591Z,36.70
2019-03-17T11:15:14.073Z,35.00
2019-03-17T11:17:43.057Z,38.50
2019-03-17T11:20:12.609Z,37.80
2019-03-17T11:22:42.003Z,37.40
2019-03-17T11:25:11.030Z,37.60
2019-03-17T11:27:40.293Z,37.70
2019-03-17T11:30:10.586Z,38.00
2019-03-17T11:32:39.450Z,37.30
2019-03-17T11:35:08.488Z,37.70
2019-03-17T11:37:37.802Z,38.10
2019-03-17T11:40:07.622Z,38.40
2019-03-17T11:42:36.566Z,40.00
2019-03-17T11:45:08.226Z,40.70
2019-03-17T11:47:38.678Z,40.70
2019-03-17T11:50:11.544Z,42.70
2019-03-17T11:52:40.587Z,42.50
2019-03-17T11:55:09.643Z,43.40
2019-03-17T11:57:38.766Z,45.10
2019-03-17T12:00:09.269Z,45.80
2019-03-17T12:02:38.494Z,47.30
2019-03-17T12:05:08.330Z,48.00
2019-03-17T12:07:37.692Z,48.30
2019-03-17T12:10:08.246Z,48.60
2019-03-17T12:12:37.201Z,48.80
2019-03-17T12:15:06.910Z,49.70
2019-03-17T12:17:35.790Z,49.90
2019-03-17T12:20:06.245Z,50.30
2019-03-17T12:22:36.070Z,50.70
2019-03-17T12:25:05.547Z,51.20
2019-03-17T12:27:34.518Z,51.90
2019-03-17T12:30:03.698Z,52.20
2019-03-17T12:32:33.279Z,52.80
2019-03-17T12:35:02.782Z,52.70
2019-03-17T12:37:31.666Z,53.70
2019-03-17T12:40:02.749Z,53.70
2019-03-17T12:42:31.478Z,54.30
2019-03-17T12:45:00.399Z,55.30
2019-03-17T12:47:29.593Z,56.10
2019-03-17T12:49:58.854Z,56.90
2019-03-17T12:52:27.842Z,58.40
2019-03-17T12:54:56.982Z,58.70
2019-03-17T12:57:26.177Z,60.70
2019-03-17T12:59:55.379Z,61.90
2019-03-17T13:02:24.237Z,63.70
2019-03-17T13:04:53.166Z,65.10
2019-03-17T13:07:22.355Z,69.40
2019-03-17T13:09:51.862Z,71.50
2019-03-17T13:12:20.731Z,74.80
2019-03-17T13:14:49.900Z,77.30
2019-03-17T13:17:18.776Z,86.10
2019-03-17T13:19:47.681Z,91.60
2019-03-17T13:22:16.548Z,93.40
2019-03-17T13:24:45.779Z,96.80
2019-03-17T13:27:34.122Z,97.90
2019-03-17T13:30:03.088Z,99.90
2019-03-17T13:32:32.362Z,99.90
2019-03-17T13:35:01.320Z,99.90
2019-03-17T13:37:30.256Z,99.90
2019-03-17T13:39:59.111Z,99.90
2019-03-17T13:42:28.703Z,99.90
2019-03-17T13:44:57.563Z,99.90
2019-03-17T13:47:26.434Z,99.90
2019-03-17T13:49:55.657Z,99.90
2019-03-17T13:52:25.230Z,99.90
2019-03-17T13:54:54.539Z,99.90
2019-03-17T13:57:23.830Z,99.90
2019-03-17T13:59:52.682Z,96.00
2019-03-17T14:02:21.539Z,95.80
2019-03-17T14:04:50.392Z,95.80
2019-03-17T14:07:19.289Z,99.90
2019-03-17T14:09:48.491Z,99.90
2019-03-17T14:12:17.798Z,99.90
2019-03-17T14:14:47.137Z,99.90
2019-03-17T14:17:16.123Z,99.90
2019-03-17T14:19:45.391Z,99.90
2019-03-17T14:22:14.301Z,99.90
2019-03-17T14:24:43.157Z,99.90
2019-03-17T14:27:12.373Z,99.90
2019-03-17T14:29:41.874Z,99.90
2019-03-17T14:32:10.811Z,99.90
2019-03-17T14:34:40.087Z,99.90
2019-03-17T14:37:09.022Z,99.90
2019-03-17T14:39:38.229Z,99.90
2019-03-17T14:42:07.144Z,99.90
2019-03-17T14:44:36.406Z,99.90
2019-03-17T14:47:05.603Z,99.90
2019-03-17T14:49:34.461Z,99.90
2019-03-17T14:52:03.337Z,99.90
2019-03-17T14:54:33.242Z,99.90
2019-03-17T14:57:02.750Z,99.90
2019-03-17T14:59:31.678Z,99.90
2019-03-17T15:02:00.520Z,99.90
2019-03-17T15:04:29.777Z,99.90
2019-03-17T15:06:58.777Z,99.90
2019-03-17T15:09:30.273Z,99.90
2019-03-17T15:11:59.199Z,99.90
2019-03-17T15:14:28.367Z,99.90
2019-03-17T15:16:57.562Z,99.90
2019-03-17T15:19:26.440Z,99.90
2019-03-17T15:21:55.337Z,99.90
2019-03-17T15:24:24.239Z,99.90
2019-03-17T15:26:53.460Z,99.90
2019-03-17T15:29:22.334Z,99.90
2019-03-17T15:31:51.522Z,99.90
2019-03-17T15:34:20.384Z,99.90
2019-03-17T15:36:49.243Z,99.90
2019-03-17T15:39:18.182Z,99.90
2019-03-17T15:41:47.408Z,99.90
2019-03-17T15:44:17.263Z,99.90
2019-03-17T15:46:46.121Z,99.90
2019-03-17T15:49:15.398Z,99.90
2019-03-17T15:51:44.252Z,99.90
2019-03-17T15:54:13.222Z,99.90
2019-03-17T15:56:42.243Z,99.90
2019-03-17T15:59:11.577Z,99.90
2019-03-17T16:01:40.422Z,99.90
2019-03-17T16:04:09.675Z,99.90
2019-03-17T16:06:38.582Z,99.90
2019-03-17T16:09:09.602Z,99.90
2019-03-17T16:11:38.539Z,99.90
2019-03-17T16:14:07.794Z,99.90
2019-03-17T16:16:36.650Z,99.90
2019-03-17T16:19:05.589Z,99.90
2019-03-17T16:21:34.874Z,99.90
2019-03-17T16:24:04.170Z,99.90
2019-03-17T16:26:33.688Z,99.90
2019-03-17T16:29:02.995Z,99.90
2019-03-17T16:31:32.383Z,99.90
2019-03-17T16:34:01.696Z,99.90
2019-03-17T16:36:30.891Z,99.90
2019-03-17T16:38:59.734Z,99.90
2019-03-17T16:41:29.094Z,99.90
2019-03-17T16:43:57.942Z,99.90
2019-03-17T16:46:26.902Z,99.90
2019-03-17T16:48:55.844Z,99.90
2019-03-17T16:51:25.462Z,99.90
2019-03-17T16:53:54.390Z,99.90
2019-03-17T16:56:23.550Z,99.90
2019-03-17T16:58:52.393Z,99.90
2019-03-17T17:01:21.253Z,99.90
2019-03-17T17:03:50.270Z,99.90
2019-03-17T17:06:19.626Z,99.90
2019-03-17T17:08:49.231Z,99.90
2019-03-17T17:11:18.561Z,99.90
2019-03-17T17:13:47.480Z,99.90
2019-03-17T17:16:16.395Z,99.90
2019-03-17T17:18:45.617Z,99.90
2019-03-17T17:21:14.874Z,99.90
2019-03-17T17:23:43.834Z,99.90
2019-03-17T17:26:13.110Z,99.90
2019-03-17T17:28:42.302Z,99.90
2019-03-17T17:31:11.304Z,99.90
2019-03-17T17:33:40.294Z,99.90
2019-03-17T17:36:11.144Z,99.90
2019-03-17T17:38:40.167Z,99.90
2019-03-17T17:41:31.511Z,99.90
2019-03-17T17:44:00.365Z,99.90
2019-03-17T17:46:29.256Z,99.90
2019-03-17T17:48:58.097Z,99.90
2019-03-17T17:51:27.315Z,99.90
2019-03-17T17:53:56.440Z,99.90
2019-03-17T17:56:25.710Z,99.90
2019-03-17T17:58:54.911Z,99.90
2019-03-17T18:01:43.330Z,99.90
2019-03-17T18:04:12.290Z,99.90
2019-03-17T18:06:41.710Z,99.90
2019-03-17T18:09:10.677Z,99.90
2019-03-17T18:11:41.151Z,99.90
2019-03-17T18:14:10.844Z,99.90
2019-03-17T18:19:28.437Z,99.90
2019-03-17T18:21:57.369Z,99.90
2019-03-17T18:24:26.423Z,99.90
2019-03-17T18:26:55.718Z,99.90
2019-03-17T18:29:24.925Z,99.90
2019-03-17T18:31:53.919Z,99.90
2019-03-17T18:34:23.475Z,99.90
2019-03-17T18:36:52.728Z,99.90
2019-03-17T18:42:11.977Z,99.90
2019-03-17T18:44:40.822Z,99.90
2019-03-17T18:47:09.696Z,99.90
2019-03-17T18:49:40.110Z,99.90
2019-03-17T18:52:09.030Z,99.90
2019-03-17T18:54:37.938Z,99.90
2019-03-17T18:57:07.265Z,99.90
2019-03-17T18:59:36.275Z,99.90
2019-03-17T19:02:05.397Z,99.90
2019-03-17T19:04:34.584Z,99.90
2019-03-17T19:07:03.889Z,99.90
2019-03-17T19:09:33.076Z,99.90
2019-03-17T19:12:02.588Z,99.90
2019-03-17T19:14:31.453Z,99.90
2019-03-17T19:17:00.785Z,99.90
2019-03-17T19:19:30.054Z,99.90
2019-03-17T19:21:59.582Z,99.90
2019-03-17T19:24:28.437Z,99.90
2019-03-17T19:26:57.876Z,99.90
2019-03-17T19:29:26.771Z,99.90
2019-03-17T19:31:56.067Z,99.90
2019-03-17T19:34:25.603Z,99.90
2019-03-17T19:36:54.558Z,99.90
2019-03-17T19:39:23.545Z,99.90
2019-03-17T19:41:52.853Z,99.90
2019-03-17T19:44:21.948Z,99.90
2019-03-17T19:46:50.787Z,99.90
2019-03-17T19:49:20.006Z,99.90
2019-03-17T19:51:48.875Z,99.90
2019-03-17T19:54:17.800Z,99.90
2019-03-17T19:56:46.783Z,99.90
2019-03-17T19:59:15.681Z,99.90
2019-03-17T20:01:44.533Z,99.90
2019-03-17T20:04:15.138Z,99.90
2019-03-17T20:06:44.273Z,99.90
2019-03-17T20:09:13.198Z,99.90
2019-03-17T20:11:44.762Z,99.90
2019-03-17T20:14:33.431Z,99.90
2019-03-17T20:17:02.309Z,99.90
2019-03-17T20:19:32.779Z,99.90
2019-03-17T20:22:02.099Z,99.90
2019-03-17T20:24:33.138Z,99.90
2019-03-17T20:27:02.115Z,99.90
2019-03-17T20:29:31.047Z,99.90
2019-03-17T20:32:00.177Z,99.90
2019-03-17T20:34:29.067Z,99.90
2019-03-17T20:36:57.906Z,99.90
2019-03-17T20:39:46.322Z,99.90
2019-03-17T20:42:16.792Z,99.90
2019-03-17T20:44:45.645Z,99.90
2019-03-17T20:47:14.786Z,99.90
2019-03-17T20:49:44.008Z,99.90
2019-03-17T20:52:13.211Z,99.90
2019-03-17T20:54:42.074Z,99.90
2019-03-17T20:57:11.256Z,99.90
2019-03-17T20:59:40.213Z,99.90
2019-03-17T21:02:09.763Z,99.90
2019-03-17T21:04:39.006Z,99.90
2019-03-17T21:07:08.617Z,99.90
2019-03-17T21:09:37.478Z,99.90
2019-03-17T21:12:06.654Z,99.90
2019-03-17T21:14:35.854Z,99.90
2019-03-17T21:17:04.934Z,99.90
2019-03-17T21:19:33.802Z,99.90
2019-03-17T21:22:03.346Z,99.90
2019-03-17T21:24:32.563Z,99.90
2019-03-17T21:27:01.747Z,99.90
2019-03-17T21:29:30.887Z,99.90
2019-03-17T21:31:59.740Z,99.90
2019-03-17T21:34:28.897Z,99.90
2019-03-17T21:36:58.046Z,99.90
2019-03-17T21:39:27.243Z,99.90
2019-03-17T21:41:56.145Z,99.90
2019-03-17T21:44:25.726Z,99.90
2019-03-17T21:46:55.053Z,99.90
2019-03-17T21:49:27.091Z,99.90
2019-03-17T21:51:55.916Z,99.90
2019-03-17T21:54:24.782Z,99.90
2019-03-17T21:56:54.074Z,99.90
2019-03-17T21:59:35.356Z,99.90
2019-03-17T22:02:12.981Z,99.90
2019-03-17T22:04:35.165Z,99.90
2019-03-17T22:07:04.254Z,99.90
2019-03-17T22:09:33.289Z,99.90
2019-03-17T22:12:02.463Z,99.90
2019-03-17T22:14:31.659Z,99.90
2019-03-17T22:17:00.498Z,99.90
2019-03-17T22:19:29.362Z,99.90
2019-03-17T22:21:58.267Z,99.90
2019-03-17T22:24:27.154Z,99.90
2019-03-17T22:26:56.331Z,99.90
2019-03-17T22:29:25.540Z,99.90
2019-03-17T22:31:54.518Z,99.90
2019-03-17T22:34:23.417Z,99.90
2019-03-17T22:36:52.814Z,99.90
2019-03-17T22:39:21.666Z,99.90
2019-03-17T22:41:50.507Z,99.90
2019-03-17T22:44:24.334Z,99.90
2019-03-17T22:46:49.930Z,99.90
2019-03-17T22:49:18.849Z,99.90
2019-03-17T22:51:47.768Z,99.90
2019-03-17T22:54:16.629Z,99.90
2019-03-17T22:56:45.797Z,99.90
2019-03-17T22:59:14.653Z,99.90
2019-03-17T23:01:43.577Z,99.90
2019-03-17T23:04:12.494Z,99.90
2019-03-17T23:06:41.488Z,99.90
2019-03-17T23:09:10.479Z,99.90
2019-03-17T23:11:39.604Z,99.90
2019-03-17T23:14:08.547Z,99.90
2019-03-17T23:16:37.480Z,99.90
2019-03-17T23:19:06.945Z,99.90
2019-03-17T23:21:35.821Z,99.90
2019-03-17T23:24:04.826Z,99.90
2019-03-17T23:26:34.054Z,99.90
2019-03-17T23:29:02.927Z,99.90
2019-03-17T23:31:31.857Z,99.90
2019-03-17T23:34:00.699Z,99.90
2019-03-17T23:36:29.818Z,99.90
2019-03-17T23:38:58.974Z,99.90
2019-03-17T23:41:28.233Z,99.90
2019-03-17T23:43:57.474Z,99.90
2019-03-17T23:46:26.334Z,99.90
2019-03-17T23:48:55.174Z,99.90
2019-03-17T23:51:24.125Z,99.90
2019-03-17T23:53:52.968Z,99.90
2019-03-17T23:56:21.826Z,99.90
2019-03-17T23:58:51.029Z,99.90
